Lopatcong, New Jersey
Current Conditions -  °F | °C
As of 1:51 AM on Friday 31 Oct 2014 (Local Time) from KABE Reporting Station
Clear Clear  
Wind Chill: 36°   Ceiling: Unl
Heat Index: 36°   Visibility: 10mi
Dew Point: 31°   Wind: 0mph
Humidity: 82%   Direction: NA
Pressure: 30.04"   Gusts: NA
Location:  40.7083°N, 75.1472°W
Report Text: KABE 310551Z 00000KT 10SM CLR 02/M01 A3004 RMK AO2 SLP173 T00221006 10089 20006 57000
Loading
Personal Weather Stations






























Interactive Weather Map New forecast layout! Learn more

10-Day Weather Forecast

Advertisements
Track Severe Weather on mobile